createdAt,value
2023-02-14T00:00:56.869Z,101078.94
2023-02-14T00:02:01.493Z,101074.69
2023-02-14T00:03:16.944Z,101073.88
2023-02-14T00:04:22.179Z,101079.13
2023-02-14T00:05:26.307Z,101076.59
2023-02-14T00:06:35.988Z,101078.31
2023-02-14T00:07:39.888Z,101082.75
2023-02-14T00:08:45.318Z,101070.38
2023-02-14T00:09:49.634Z,101075.63
2023-02-14T00:10:53.528Z,101074.59
2023-02-14T00:11:58.085Z,101064.91
2023-02-14T00:13:01.996Z,101066.72
2023-02-14T00:14:29.882Z,101069.44
2023-02-14T00:15:33.853Z,101058.88
2023-02-14T00:16:38.561Z,101068.56
2023-02-14T00:17:42.572Z,101067.69
2023-02-14T00:19:04.178Z,101066.78
2023-02-14T00:20:12.113Z,101059.69
2023-02-14T00:21:15.899Z,101064.03
2023-02-14T00:22:20.366Z,101068.44
2023-02-14T00:23:24.140Z,101068.44
2023-02-14T00:24:28.196Z,101071.94
2023-02-14T00:25:34.792Z,101075.75
2023-02-14T00:26:39.087Z,101075.63
2023-02-14T00:27:43.038Z,101083.53
2023-02-14T00:28:46.635Z,101087.91
2023-02-14T00:29:50.921Z,101082.63
2023-02-14T00:30:58.598Z,101081.03
2023-02-14T00:32:03.520Z,101073.84
2023-02-14T00:33:14.732Z,101079.13
2023-02-14T00:34:19.976Z,101072.94
2023-02-14T00:35:24.200Z,101064.97
2023-02-14T00:36:28.266Z,101060.56
2023-02-14T00:37:32.211Z,101072.00
2023-02-14T00:38:36.828Z,101073.03
2023-02-14T00:39:40.724Z,101076.50
2023-02-14T00:40:44.628Z,101066.94
2023-02-14T00:41:48.661Z,101058.19
2023-02-14T00:42:52.621Z,101064.28
2023-02-14T00:43:56.455Z,101062.66
2023-02-14T00:45:00.718Z,101060.00
2023-02-14T00:46:05.359Z,101059.97
2023-02-14T00:47:09.545Z,101054.66
2023-02-14T00:48:14.258Z,101060.84
2023-02-14T00:49:18.283Z,101067.88
2023-02-14T00:50:21.926Z,101061.91
2023-02-14T00:51:28.827Z,101061.13
2023-02-14T00:52:33.158Z,101061.03
2023-02-14T00:53:37.796Z,101055.66
2023-02-14T00:54:41.461Z,101051.22
2023-02-14T00:55:47.451Z,101048.50
2023-02-14T00:56:51.563Z,101054.75
2023-02-14T00:57:55.283Z,101053.03
2023-02-14T00:58:58.987Z,101039.91
2023-02-14T01:00:03.561Z,101054.81
2023-02-14T01:01:15.726Z,101048.91
2023-02-14T01:02:19.668Z,101038.31
2023-02-14T01:03:24.253Z,101047.91
2023-02-14T01:04:28.216Z,101039.16
2023-02-14T01:05:32.054Z,101049.69
2023-02-14T01:06:35.922Z,101050.59
2023-02-14T01:07:40.162Z,101049.69
2023-02-14T01:08:44.699Z,101053.19
2023-02-14T01:09:48.915Z,101052.34
2023-02-14T01:10:53.401Z,101054.09
2023-02-14T01:11:57.749Z,101048.84
2023-02-14T01:13:01.889Z,101054.94
2023-02-14T01:14:10.882Z,101048.81
2023-02-14T01:15:15.512Z,101046.03
2023-02-14T01:16:23.363Z,101051.31
2023-02-14T01:17:28.117Z,101046.91
2023-02-14T01:18:32.794Z,101047.94
2023-02-14T01:19:36.836Z,101051.38
2023-02-14T01:20:41.552Z,101053.31
2023-02-14T01:21:46.505Z,101056.97
2023-02-14T01:22:52.036Z,101049.06
2023-02-14T01:23:59.691Z,101051.84
2023-02-14T01:25:12.360Z,101054.34
2023-02-14T01:26:17.456Z,101054.47
2023-02-14T01:27:21.642Z,101054.41
2023-02-14T01:28:25.620Z,101060.44
2023-02-14T01:29:29.511Z,101050.75
2023-02-14T01:30:33.812Z,101063.19
2023-02-14T01:31:38.428Z,101063.19
2023-02-14T01:32:42.540Z,101056.91
2023-02-14T01:33:49.344Z,101056.03
2023-02-14T01:34:53.465Z,101060.63
2023-02-14T01:35:58.539Z,101060.56
2023-02-14T01:37:02.377Z,101049.19
2023-02-14T01:38:09.421Z,101057.06
2023-02-14T01:39:15.459Z,101050.88
2023-02-14T01:40:19.537Z,101051.66
2023-02-14T01:41:25.338Z,101059.53
2023-02-14T01:42:29.698Z,101053.38
2023-02-14T01:44:03.093Z,101055.03
2023-02-14T01:45:20.260Z,101047.25
2023-02-14T01:46:38.031Z,101046.34
2023-02-14T01:47:46.912Z,101042.09
2023-02-14T01:48:55.733Z,101038.56
2023-02-14T01:50:17.874Z,101037.00
2023-02-14T01:51:22.741Z,101035.19
2023-02-14T01:52:37.722Z,101033.41
2023-02-14T01:53:41.873Z,101033.50
2023-02-14T01:55:10.277Z,101034.41
2023-02-14T01:56:24.364Z,101036.97
2023-02-14T01:57:41.151Z,101040.41
2023-02-14T01:58:51.256Z,101042.97
2023-02-14T02:00:19.831Z,101043.88
2023-02-14T02:01:24.748Z,101038.66
2023-02-14T02:02:28.445Z,101033.34
2023-02-14T02:03:46.085Z,101034.31
2023-02-14T02:04:56.140Z,101032.47
2023-02-14T02:06:35.952Z,101034.19
2023-02-14T02:07:40.978Z,101039.47
2023-02-14T02:09:25.645Z,101032.34
2023-02-14T02:10:30.282Z,101037.00
2023-02-14T02:11:38.093Z,101034.31
2023-02-14T02:12:54.346Z,101035.09
2023-02-14T02:14:00.993Z,101026.19
2023-02-14T02:15:17.140Z,101028.88
2023-02-14T02:16:52.696Z,101033.34
2023-02-14T02:18:18.220Z,101032.47
2023-02-14T02:19:36.520Z,101031.59
2023-02-14T02:20:43.232Z,101029.91
2023-02-14T02:22:24.348Z,101042.09
2023-02-14T02:23:39.616Z,101046.56
2023-02-14T02:25:16.008Z,101043.19
2023-02-14T02:27:06.046Z,101045.72
2023-02-14T02:28:44.721Z,101048.41
2023-02-14T02:30:45.657Z,101043.00
2023-02-14T02:32:52.929Z,101043.88
2023-02-14T02:34:47.327Z,101046.56
2023-02-14T02:36:06.263Z,101039.56
2023-02-14T02:37:51.793Z,101035.97
2023-02-14T02:39:25.646Z,101042.09
2023-02-14T02:40:54.940Z,101043.06
2023-02-14T02:42:25.271Z,101038.53
2023-02-14T02:43:48.028Z,101039.38
2023-02-14T02:45:34.634Z,101042.88
2023-02-14T02:46:49.999Z,101038.66
2023-02-14T02:48:09.170Z,101031.69
2023-02-14T02:50:14.897Z,101030.75
2023-02-14T02:52:02.013Z,101033.28
2023-02-14T02:53:19.958Z,101032.47
2023-02-14T02:54:52.810Z,101031.66
2023-02-14T02:56:34.376Z,101031.56
2023-02-14T02:57:43.400Z,101028.91
2023-02-14T02:59:02.933Z,101028.06
2023-02-14T03:00:22.408Z,101031.56
2023-02-14T03:01:41.553Z,101021.06
2023-02-14T03:03:12.010Z,101020.06
2023-02-14T03:04:56.255Z,101033.16
2023-02-14T03:06:00.869Z,101025.25
2023-02-14T03:07:25.806Z,101022.66
2023-02-14T03:08:29.588Z,101028.06
2023-02-14T03:09:33.711Z,101028.94
2023-02-14T03:10:39.693Z,101037.72
2023-02-14T03:12:03.095Z,101035.97
2023-02-14T03:13:59.771Z,101035.06
2023-02-14T03:15:18.627Z,101037.63
2023-02-14T03:16:54.618Z,101036.81
2023-02-14T03:18:40.793Z,101041.97
2023-02-14T03:20:28.483Z,101039.47
2023-02-14T03:21:56.836Z,101044.78
2023-02-14T03:23:32.788Z,101055.25
2023-02-14T03:24:45.040Z,101049.13
2023-02-14T03:26:01.248Z,101052.53
2023-02-14T03:27:10.962Z,101050.13
2023-02-14T03:28:31.289Z,101049.34
2023-02-14T03:30:11.506Z,101053.88
2023-02-14T03:31:52.717Z,101053.84
2023-02-14T03:33:15.081Z,101051.34
2023-02-14T03:34:50.288Z,101046.00
2023-02-14T03:36:12.959Z,101056.59
2023-02-14T03:38:20.393Z,101056.53
2023-02-14T03:39:53.638Z,101055.63
2023-02-14T03:41:12.990Z,101055.44
2023-02-14T03:42:41.874Z,101053.72
2023-02-14T03:43:55.140Z,101051.97
2023-02-14T03:45:01.409Z,101048.53
2023-02-14T03:46:21.355Z,101045.00
2023-02-14T03:47:33.397Z,101056.41
2023-02-14T03:48:40.833Z,101050.25
2023-02-14T03:50:11.422Z,101051.03
2023-02-14T03:51:18.900Z,101054.53
2023-02-14T03:52:27.226Z,101052.81
2023-02-14T03:53:37.237Z,101052.81
2023-02-14T03:54:43.368Z,101046.63
2023-02-14T03:56:15.109Z,101051.13
2023-02-14T03:57:24.217Z,101053.81
2023-02-14T03:58:37.815Z,101051.13
2023-02-14T03:59:42.644Z,101046.72
2023-02-14T04:00:51.706Z,101051.97
2023-02-14T04:02:36.888Z,101051.16
2023-02-14T04:03:43.712Z,101051.25
2023-02-14T04:04:52.799Z,101059.38
2023-02-14T04:05:56.971Z,101047.94
2023-02-14T04:07:10.245Z,101053.97
2023-02-14T04:08:23.914Z,101047.16
2023-02-14T04:09:28.042Z,101059.38
2023-02-14T04:10:32.795Z,101047.16
2023-02-14T04:11:38.895Z,101051.56
2023-02-14T04:12:43.244Z,101054.94
2023-02-14T04:13:47.546Z,101051.38
2023-02-14T04:14:51.674Z,101053.97
2023-02-14T04:15:55.744Z,101055.66
2023-02-14T04:17:18.415Z,101045.03
2023-02-14T04:18:41.071Z,101045.91
2023-02-14T04:19:44.972Z,101055.63
2023-02-14T04:20:48.771Z,101057.38
2023-02-14T04:21:53.323Z,101058.31
2023-02-14T04:22:57.981Z,101061.94
2023-02-14T04:24:01.944Z,101061.81
2023-02-14T04:25:11.158Z,101059.19
2023-02-14T04:26:15.418Z,101061.72
2023-02-14T04:27:19.639Z,101065.22
2023-02-14T04:28:23.396Z,101063.34
2023-02-14T04:29:27.552Z,101064.28
2023-02-14T04:30:31.439Z,101065.16
2023-02-14T04:31:35.220Z,101062.47
2023-02-14T04:32:40.259Z,101058.00
2023-02-14T04:33:46.212Z,101064.16
2023-02-14T04:34:50.414Z,101062.41
2023-02-14T04:35:54.320Z,101065.00
2023-02-14T04:36:58.283Z,101065.91
2023-02-14T04:38:03.616Z,101060.63
2023-02-14T04:39:10.902Z,101065.09
2023-02-14T04:40:17.702Z,101065.09
2023-02-14T04:41:21.373Z,101062.47
2023-02-14T04:42:25.486Z,101061.50
2023-02-14T04:43:29.526Z,101061.53
2023-02-14T04:44:34.311Z,101067.59
2023-02-14T04:45:40.937Z,101063.31
2023-02-14T04:46:45.222Z,101066.78
2023-02-14T04:47:52.452Z,101063.22
2023-02-14T04:48:56.212Z,101070.31
2023-02-14T04:49:59.997Z,101058.16
2023-02-14T04:51:05.873Z,101064.34
2023-02-14T04:52:13.383Z,101066.97
2023-02-14T04:53:19.442Z,101058.97
2023-02-14T04:54:23.498Z,101059.94
2023-02-14T04:55:27.464Z,101064.28
2023-02-14T04:56:31.162Z,101062.47
2023-02-14T04:57:35.716Z,101062.47
2023-02-14T04:58:39.410Z,101065.94
2023-02-14T04:59:43.799Z,101071.28
2023-02-14T05:00:51.006Z,101078.28
2023-02-14T05:01:55.177Z,101058.03
2023-02-14T05:02:59.208Z,101063.31
2023-02-14T05:04:03.411Z,101059.00
2023-02-14T05:05:11.811Z,101062.41
2023-02-14T05:06:15.864Z,101063.28
2023-02-14T05:07:19.665Z,101064.09
2023-02-14T05:08:23.557Z,101072.91
2023-02-14T05:09:27.508Z,101071.06
2023-02-14T05:10:31.220Z,101072.84
2023-02-14T05:11:34.867Z,101073.63
2023-02-14T05:12:38.464Z,101069.22
2023-02-14T05:13:42.190Z,101067.44
2023-02-14T05:14:46.184Z,101067.44
2023-02-14T05:15:49.978Z,101061.34
2023-02-14T05:16:53.785Z,101065.84
2023-02-14T05:18:01.773Z,101069.31
2023-02-14T05:19:06.410Z,101068.41
2023-02-14T05:20:11.554Z,101067.59
2023-02-14T05:21:15.754Z,101070.22
2023-02-14T05:22:20.006Z,101063.28
2023-02-14T05:23:24.450Z,101053.59
2023-02-14T05:24:28.400Z,101058.81
2023-02-14T05:25:32.639Z,101056.31
2023-02-14T05:26:36.613Z,101053.59
2023-02-14T05:27:40.443Z,101067.69
2023-02-14T05:28:44.561Z,101058.88
2023-02-14T05:29:48.604Z,101056.25
2023-02-14T05:30:52.885Z,101063.31
2023-02-14T05:31:56.847Z,101064.22
2023-02-14T05:33:01.473Z,101062.44
2023-02-14T05:34:13.006Z,101061.50
2023-02-14T05:35:16.933Z,101060.72
2023-02-14T05:36:21.213Z,101058.13
2023-02-14T05:37:24.943Z,101058.06
2023-02-14T05:38:30.304Z,101061.72
2023-02-14T05:39:34.134Z,101058.13
2023-02-14T05:40:37.751Z,101062.56
2023-02-14T05:41:41.833Z,101062.56
2023-02-14T05:42:46.053Z,101069.53
2023-02-14T05:43:49.935Z,101072.13
2023-02-14T05:44:53.943Z,101075.66
2023-02-14T05:45:58.536Z,101077.59
2023-02-14T05:47:02.513Z,101084.59
2023-02-14T05:48:09.138Z,101077.63
2023-02-14T05:49:13.440Z,101070.53
2023-02-14T05:50:19.516Z,101074.94
2023-02-14T05:51:23.163Z,101077.53
2023-02-14T05:52:27.600Z,101081.09
2023-02-14T05:53:31.495Z,101079.28
2023-02-14T05:54:35.477Z,101084.72
2023-02-14T05:55:39.427Z,101084.72
2023-02-14T05:56:43.161Z,101077.84
2023-02-14T05:57:47.631Z,101075.91
2023-02-14T05:58:51.542Z,101073.19
2023-02-14T05:59:58.470Z,101083.63
2023-02-14T06:01:03.078Z,101073.06
2023-02-14T06:02:10.407Z,101073.94
2023-02-14T06:03:14.783Z,101077.63
2023-02-14T06:04:18.426Z,101081.97
2023-02-14T06:05:22.787Z,101087.19
2023-02-14T06:06:26.536Z,101084.72
2023-02-14T06:07:30.630Z,101090.84
2023-02-14T06:08:34.501Z,101080.28
2023-02-14T06:09:38.480Z,101080.19
2023-02-14T06:10:42.447Z,101087.19
2023-02-14T06:11:46.547Z,101084.63
2023-02-14T06:12:53.522Z,101087.28
2023-02-14T06:13:57.301Z,101084.59
2023-02-14T06:15:00.880Z,101081.03
2023-02-14T06:16:08.548Z,101079.38
2023-02-14T06:17:12.674Z,101088.06
2023-02-14T06:18:16.667Z,101088.03
2023-02-14T06:19:20.979Z,101092.47
2023-02-14T06:20:25.666Z,101090.66
2023-02-14T06:21:30.242Z,101088.06
2023-02-14T06:22:34.106Z,101083.81
2023-02-14T06:23:37.854Z,101078.53
2023-02-14T06:24:41.655Z,101082.88
2023-02-14T06:25:45.561Z,101083.81
2023-02-14T06:26:49.786Z,101076.75
2023-02-14T06:27:57.924Z,101086.28
2023-02-14T06:29:03.054Z,101086.19
2023-02-14T06:30:18.918Z,101091.50
2023-02-14T06:31:23.446Z,101086.19
2023-02-14T06:32:27.724Z,101089.09
2023-02-14T06:33:32.683Z,101085.44
2023-02-14T06:34:36.786Z,101089.75
2023-02-14T06:35:41.029Z,101089.69
2023-02-14T06:36:45.319Z,101083.50
2023-02-14T06:37:49.846Z,101091.41
2023-02-14T06:38:53.774Z,101076.53
2023-02-14T06:39:57.787Z,101083.59
2023-02-14T06:41:12.766Z,101090.59
2023-02-14T06:42:17.449Z,101080.03
2023-02-14T06:43:21.878Z,101084.56
2023-02-14T06:44:25.954Z,101081.06
2023-02-14T06:45:29.868Z,101083.69
2023-02-14T06:46:33.472Z,101088.81
2023-02-14T06:47:38.020Z,101088.06
2023-02-14T06:48:42.270Z,101087.09
2023-02-14T06:49:46.113Z,101093.34
2023-02-14T06:50:50.162Z,101097.63
2023-02-14T06:51:54.585Z,101098.50
2023-02-14T06:52:58.306Z,101095.84
2023-02-14T06:54:02.533Z,101083.53
2023-02-14T06:55:12.009Z,101093.22
2023-02-14T06:56:16.201Z,101093.13
2023-02-14T06:57:20.112Z,101092.31
2023-02-14T06:58:24.327Z,101093.09
2023-02-14T06:59:28.456Z,101099.22
2023-02-14T07:00:32.682Z,101098.50
2023-02-14T07:01:37.056Z,101101.25
2023-02-14T07:02:41.130Z,101101.41
2023-02-14T07:03:44.843Z,101099.56
2023-02-14T07:04:48.727Z,101097.75
2023-02-14T07:05:53.687Z,101095.91
2023-02-14T07:06:58.522Z,101102.84
2023-02-14T07:08:02.708Z,101113.41
2023-02-14T07:09:17.861Z,101104.84
2023-02-14T07:10:21.437Z,101110.00
2023-02-14T07:11:25.134Z,101109.03
2023-02-14T07:12:28.895Z,101101.03
2023-02-14T07:13:32.513Z,101107.25
2023-02-14T07:14:36.189Z,101112.41
2023-02-14T07:15:40.104Z,101103.69
2023-02-14T07:16:44.027Z,101114.19
2023-02-14T07:17:48.332Z,101116.81
2023-02-14T07:18:52.167Z,101115.91
2023-02-14T07:19:55.885Z,101117.56
2023-02-14T07:20:59.872Z,101115.78
2023-02-14T07:22:03.684Z,101106.28
2023-02-14T07:23:11.591Z,101120.25
2023-02-14T07:24:16.036Z,101112.44
2023-02-14T07:25:20.011Z,101114.97
2023-02-14T07:26:24.443Z,101123.69
2023-02-14T07:27:28.312Z,101113.28
2023-02-14T07:28:34.116Z,101121.19
2023-02-14T07:29:38.291Z,101114.88
2023-02-14T07:30:42.073Z,101120.94
2023-02-14T07:31:46.541Z,101130.53
2023-02-14T07:32:50.649Z,101123.59
2023-02-14T07:33:54.886Z,101125.38
2023-02-14T07:34:58.565Z,101121.94
2023-02-14T07:36:09.225Z,101131.69
2023-02-14T07:37:13.442Z,101126.34
2023-02-14T07:38:17.275Z,101124.56
2023-02-14T07:39:21.580Z,101123.78
2023-02-14T07:40:25.389Z,101120.25
2023-02-14T07:41:29.050Z,101120.16
2023-02-14T07:42:33.214Z,101125.50
2023-02-14T07:43:37.166Z,101120.25
2023-02-14T07:44:40.875Z,101129.69
2023-02-14T07:45:44.595Z,101117.44
2023-02-14T07:46:48.703Z,101119.25
2023-02-14T07:47:55.304Z,101118.56
2023-02-14T07:48:59.134Z,101119.28
2023-02-14T07:50:05.352Z,101121.06
2023-02-14T07:51:12.144Z,101125.28
2023-02-14T07:52:16.185Z,101127.00
2023-02-14T07:53:20.125Z,101118.19
2023-02-14T07:54:23.891Z,101124.28
2023-02-14T07:55:28.131Z,101118.09
2023-02-14T07:56:34.878Z,101120.78
2023-02-14T07:57:38.627Z,101120.91
2023-02-14T07:58:43.207Z,101124.28
2023-02-14T07:59:47.220Z,101118.06
2023-02-14T08:00:51.521Z,101123.47
2023-02-14T08:01:55.376Z,101122.50
2023-02-14T08:02:59.105Z,101129.47
2023-02-14T08:04:02.867Z,101126.81
2023-02-14T08:05:16.089Z,101125.28
2023-02-14T08:06:20.903Z,101121.78
2023-02-14T08:07:24.682Z,101115.47
2023-02-14T08:08:31.475Z,101118.94
2023-02-14T08:09:36.277Z,101118.06
2023-02-14T08:10:40.688Z,101125.97
2023-02-14T08:12:03.260Z,101118.09
2023-02-14T08:13:12.162Z,101116.25
2023-02-14T08:14:16.301Z,101117.03
2023-02-14T08:15:38.874Z,101121.53
2023-02-14T08:16:42.747Z,101123.22
2023-02-14T08:17:46.997Z,101122.44
2023-02-14T08:18:50.873Z,101124.28
2023-02-14T08:19:54.669Z,101124.13
2023-02-14T08:20:58.671Z,101125.72
2023-02-14T08:22:04.356Z,101126.56
2023-02-14T08:23:12.188Z,101126.47
2023-02-14T08:24:16.303Z,101126.69
2023-02-14T08:25:21.603Z,101131.69
2023-02-14T08:26:25.607Z,101123.66
2023-02-14T08:27:29.667Z,101124.44
2023-02-14T08:28:33.844Z,101124.31
2023-02-14T08:29:37.721Z,101128.63
2023-02-14T08:30:43.457Z,101127.69
2023-02-14T08:31:48.893Z,101131.00
2023-02-14T08:32:53.837Z,101124.72
2023-02-14T08:33:57.989Z,101131.00
2023-02-14T08:35:01.890Z,101135.38
2023-02-14T08:36:06.243Z,101136.31
2023-02-14T08:37:11.935Z,101128.41
2023-02-14T08:38:16.105Z,101130.00
2023-02-14T08:39:24.420Z,101128.22
2023-02-14T08:40:28.785Z,101131.06
2023-02-14T08:41:37.078Z,101135.47
2023-02-14T08:42:41.017Z,101125.72
2023-02-14T08:43:46.429Z,101139.66
2023-02-14T08:44:50.409Z,101137.78
2023-02-14T08:45:55.112Z,101131.59
2023-02-14T08:46:59.067Z,101134.09
2023-02-14T08:48:14.325Z,101130.53
2023-02-14T08:49:18.545Z,101127.91
2023-02-14T08:50:22.967Z,101131.41
2023-02-14T08:51:29.532Z,101134.09
2023-02-14T08:52:36.031Z,101143.06
2023-02-14T08:53:40.907Z,101141.28
2023-02-14T08:54:46.969Z,101139.53
2023-02-14T08:55:51.027Z,101136.88
2023-02-14T08:56:54.709Z,101139.56
2023-02-14T08:58:00.654Z,101142.25
2023-02-14T08:59:07.098Z,101144.81
2023-02-14T09:00:12.060Z,101146.72
2023-02-14T09:01:18.258Z,101147.63
2023-02-14T09:02:22.424Z,101139.72
2023-02-14T09:03:26.368Z,101150.25
2023-02-14T09:04:30.678Z,101153.16
2023-02-14T09:05:35.321Z,101148.72
2023-02-14T09:06:40.256Z,101146.00
2023-02-14T09:07:44.013Z,101158.94
2023-02-14T09:08:48.309Z,101156.34
2023-02-14T09:09:52.385Z,101160.88
2023-02-14T09:10:56.013Z,101160.06
2023-02-14T09:12:04.567Z,101158.41
2023-02-14T09:13:11.502Z,101159.94
2023-02-14T09:14:21.222Z,101164.28
2023-02-14T09:15:25.019Z,101157.91
2023-02-14T09:16:28.860Z,101176.47
2023-02-14T09:17:32.884Z,101174.78
2023-02-14T09:18:37.603Z,101169.66
2023-02-14T09:19:49.495Z,101172.09
2023-02-14T09:20:53.863Z,101172.97
2023-02-14T09:21:57.984Z,101167.88
2023-02-14T09:23:01.945Z,101167.66
2023-02-14T09:24:08.413Z,101171.06
2023-02-14T09:25:12.914Z,101181.75
2023-02-14T09:26:18.610Z,101173.97
2023-02-14T09:27:22.337Z,101181.81
2023-02-14T09:28:26.532Z,101176.34
2023-02-14T09:29:32.387Z,101174.75
2023-02-14T09:30:36.370Z,101180.16
2023-02-14T09:31:40.430Z,101176.53
2023-02-14T09:32:44.582Z,101178.97
2023-02-14T09:33:50.305Z,101182.50
2023-02-14T09:35:13.487Z,101175.44
2023-02-14T09:36:20.344Z,101183.19
2023-02-14T09:37:43.183Z,101169.84
2023-02-14T09:38:47.816Z,101180.50
2023-02-14T09:39:51.960Z,101175.16
2023-02-14T09:40:56.445Z,101183.09
2023-02-14T09:42:34.129Z,101178.66
2023-02-14T09:43:53.321Z,101179.63
2023-02-14T09:45:26.676Z,101178.03
2023-02-14T09:46:40.381Z,101179.97
2023-02-14T09:47:51.230Z,101175.59
2023-02-14T09:48:59.957Z,101181.75
2023-02-14T09:50:32.366Z,101176.44
2023-02-14T09:51:45.849Z,101169.34
2023-02-14T09:52:59.412Z,101174.56
2023-02-14T09:54:28.994Z,101173.88
2023-02-14T09:56:13.828Z,101175.69
2023-02-14T09:57:57.892Z,101169.47
2023-02-14T09:59:21.967Z,101177.34
2023-02-14T10:00:34.244Z,101180.66
2023-02-14T10:01:57.481Z,101169.06
2023-02-14T10:03:20.816Z,101176.91
2023-02-14T10:05:03.398Z,101174.19
2023-02-14T10:06:23.455Z,101168.09
2023-02-14T10:08:26.378Z,101168.78
2023-02-14T10:10:01.805Z,101166.88
2023-02-14T10:11:18.162Z,101173.19
2023-02-14T10:13:02.068Z,101168.94
2023-02-14T10:14:16.662Z,101173.16
2023-02-14T10:15:28.285Z,101181.91
2023-02-14T10:16:46.886Z,101174.13
2023-02-14T10:18:06.130Z,101173.19
2023-02-14T10:19:31.988Z,101174.19
2023-02-14T10:20:53.310Z,101172.47
2023-02-14T10:22:16.643Z,101165.22
2023-02-14T10:23:45.734Z,101171.31
2023-02-14T10:25:11.997Z,101162.78
2023-02-14T10:26:38.275Z,101169.75
2023-02-14T10:27:51.441Z,101167.88
2023-02-14T10:28:56.577Z,101169.59
2023-02-14T10:30:27.764Z,101167.72
2023-02-14T10:31:56.766Z,101163.19
2023-02-14T10:33:22.877Z,101167.53
2023-02-14T10:34:49.741Z,101163.13
2023-02-14T10:36:10.082Z,101167.53
2023-02-14T10:37:43.921Z,101163.31
2023-02-14T10:39:09.706Z,101162.72
2023-02-14T10:40:41.155Z,101167.00
2023-02-14T10:42:14.575Z,101162.44
2023-02-14T10:43:38.516Z,101159.75
2023-02-14T10:45:23.963Z,101159.63
2023-02-14T10:47:07.717Z,101163.94
2023-02-14T10:48:37.151Z,101164.13
2023-02-14T10:50:21.815Z,101165.91
2023-02-14T10:51:36.869Z,101157.84
2023-02-14T10:53:23.565Z,101156.84
2023-02-14T10:54:41.702Z,101159.81
2023-02-14T10:55:59.405Z,101152.69
2023-02-14T10:57:19.042Z,101155.25
2023-02-14T10:58:28.537Z,101151.16
2023-02-14T10:59:48.819Z,101152.84
2023-02-14T11:01:18.481Z,101146.53
2023-02-14T11:02:32.187Z,101145.69
2023-02-14T11:04:03.714Z,101150.06
2023-02-14T11:06:01.726Z,101147.25
2023-02-14T11:07:16.772Z,101147.28
2023-02-14T11:08:34.174Z,101141.94
2023-02-14T11:09:38.060Z,101145.44
2023-02-14T11:10:42.919Z,101144.63
2023-02-14T11:11:59.186Z,101142.91
2023-02-14T11:13:02.789Z,101144.63
2023-02-14T11:14:25.153Z,101138.56
2023-02-14T11:15:39.254Z,101136.75
2023-02-14T11:16:43.062Z,101145.50
2023-02-14T11:18:14.912Z,101143.94
2023-02-14T11:19:27.370Z,101146.69
2023-02-14T11:20:31.582Z,101144.09
2023-02-14T11:21:45.088Z,101144.00
2023-02-14T11:22:50.193Z,101132.50
2023-02-14T11:23:54.216Z,101139.53
2023-02-14T11:25:35.721Z,101130.66
2023-02-14T11:26:45.612Z,101127.00
2023-02-14T11:28:08.741Z,101130.56
2023-02-14T11:29:22.104Z,101138.28
2023-02-14T11:30:37.224Z,101140.00
2023-02-14T11:31:43.338Z,101139.09
2023-02-14T11:32:56.558Z,101134.06
2023-02-14T11:34:05.011Z,101135.84
2023-02-14T11:35:29.075Z,101128.84
2023-02-14T11:36:42.043Z,101133.28
2023-02-14T11:37:55.637Z,101128.88
2023-02-14T11:39:32.114Z,101132.25
2023-02-14T11:40:42.636Z,101117.16
2023-02-14T11:41:59.943Z,101122.59
2023-02-14T11:43:30.185Z,101117.06
2023-02-14T11:44:37.380Z,101119.59
2023-02-14T11:45:46.184Z,101118.72
2023-02-14T11:47:02.976Z,101113.28
2023-02-14T11:48:37.315Z,101108.72
2023-02-14T11:50:23.527Z,101105.75
2023-02-14T11:51:45.878Z,101108.19
2023-02-14T11:52:56.885Z,101107.91
2023-02-14T11:54:08.727Z,101116.44
2023-02-14T11:55:33.645Z,101110.22
2023-02-14T11:57:01.605Z,101104.63
2023-02-14T11:58:09.246Z,101106.34
2023-02-14T11:59:27.356Z,101104.44
2023-02-14T12:00:32.848Z,101106.19
2023-02-14T12:01:41.517Z,101105.31
2023-02-14T12:02:50.944Z,101108.88
2023-02-14T12:04:03.567Z,101108.75
2023-02-14T12:05:31.099Z,101108.81
2023-02-14T12:06:36.768Z,101101.06
2023-02-14T12:07:46.356Z,101099.78
2023-02-14T12:08:50.251Z,101097.06
2023-02-14T12:10:18.251Z,101098.69
2023-02-14T12:11:24.640Z,101091.72
2023-02-14T12:12:29.208Z,101094.50
2023-02-14T12:13:33.573Z,101092.94
2023-02-14T12:14:39.813Z,101091.13
2023-02-14T12:15:45.604Z,101095.34
2023-02-14T12:17:34.378Z,101093.03
2023-02-14T12:18:51.517Z,101081.47
2023-02-14T12:20:19.690Z,101086.72
2023-02-14T12:21:50.083Z,101087.41
2023-02-14T12:23:14.484Z,101084.78
2023-02-14T12:24:38.352Z,101080.63
2023-02-14T12:26:11.746Z,101084.19
2023-02-14T12:27:27.353Z,101080.75
2023-02-14T12:28:50.309Z,101084.50
2023-02-14T12:30:23.784Z,101088.97
2023-02-14T12:31:28.547Z,101076.72
2023-02-14T12:32:33.791Z,101073.22
2023-02-14T12:33:40.249Z,101077.50
2023-02-14T12:34:44.628Z,101077.28
2023-02-14T12:36:16.524Z,101076.25
2023-02-14T12:37:36.430Z,101074.81
2023-02-14T12:39:01.335Z,101079.19
2023-02-14T12:40:50.184Z,101080.19
2023-02-14T12:42:06.120Z,101082.78
2023-02-14T12:43:19.892Z,101072.31
2023-02-14T12:44:51.239Z,101071.44
2023-02-14T12:45:56.191Z,101073.22
2023-02-14T12:47:34.539Z,101059.81
2023-02-14T12:49:20.651Z,101066.09
2023-02-14T12:50:33.970Z,101059.03
2023-02-14T12:52:14.810Z,101058.13
2023-02-14T12:53:28.433Z,101057.16
2023-02-14T12:54:50.656Z,101056.28
2023-02-14T12:56:26.836Z,101052.84
2023-02-14T12:57:42.606Z,101053.72
2023-02-14T12:59:00.334Z,101053.59
2023-02-14T13:00:56.643Z,101046.69
2023-02-14T13:02:25.556Z,101041.50
2023-02-14T13:03:59.920Z,101042.50
2023-02-14T13:05:31.144Z,101044.31
2023-02-14T13:06:48.272Z,101047.81
2023-02-14T13:08:44.997Z,101045.13
2023-02-14T13:10:47.032Z,101052.03
2023-02-14T13:12:37.302Z,101045.19
2023-02-14T13:14:05.256Z,101045.25
2023-02-14T13:15:51.644Z,101045.19
2023-02-14T13:17:16.946Z,101043.41
2023-02-14T13:18:49.832Z,101051.41
2023-02-14T13:20:05.615Z,101049.63
2023-02-14T13:21:15.448Z,101045.25
2023-02-14T13:22:24.178Z,101047.94
2023-02-14T13:23:55.283Z,101045.19
2023-02-14T13:25:10.494Z,101053.16
2023-02-14T13:26:31.263Z,101047.59
2023-02-14T13:27:40.429Z,101047.59
2023-02-14T13:29:02.055Z,101051.13
2023-02-14T13:30:35.204Z,101045.88
2023-02-14T13:31:48.806Z,101049.50
2023-02-14T13:32:59.212Z,101049.50
2023-02-14T13:34:15.991Z,101046.91
2023-02-14T13:35:24.904Z,101041.69
2023-02-14T13:36:37.726Z,101040.81
2023-02-14T13:37:55.323Z,101036.44
2023-02-14T13:39:04.200Z,101039.03
2023-02-14T13:40:21.759Z,101036.25
2023-02-14T13:41:28.434Z,101027.41
2023-02-14T13:42:57.237Z,101026.31
2023-02-14T13:44:03.795Z,101026.34
2023-02-14T13:45:35.234Z,101029.16
2023-02-14T13:46:39.157Z,101031.66